createdAt,value
2019-04-25T00:03:38.380Z,15.00
2019-04-25T00:08:44.123Z,14.90
2019-04-25T00:13:49.566Z,14.80
2019-04-25T00:18:55.128Z,14.60
2019-04-25T00:24:07.976Z,14.50
2019-04-25T00:29:13.429Z,14.50
2019-04-25T00:34:18.610Z,14.50
2019-04-25T00:39:24.034Z,14.40
2019-04-25T00:44:29.632Z,14.40
2019-04-25T00:49:34.565Z,14.40
2019-04-25T00:54:41.343Z,14.40
2019-04-25T00:59:52.689Z,14.30
2019-04-25T01:04:58.414Z,14.30
2019-04-25T01:10:05.870Z,14.30
2019-04-25T01:15:11.806Z,14.30
2019-04-25T01:20:17.372Z,14.20
2019-04-25T01:25:23.406Z,14.20
2019-04-25T01:30:29.350Z,14.10
2019-04-25T01:35:43.100Z,14.10
2019-04-25T01:40:53.074Z,14.00
2019-04-25T01:45:59.308Z,13.90
2019-04-25T01:51:04.859Z,13.90
2019-04-25T01:56:10.644Z,13.90
2019-04-25T02:01:36.607Z,13.80
2019-04-25T02:06:43.082Z,13.80
2019-04-25T02:11:56.811Z,13.80
2019-04-25T02:17:04.045Z,13.80
2019-04-25T02:22:09.602Z,13.70
2019-04-25T02:27:14.802Z,13.60
2019-04-25T02:32:20.026Z,13.40
2019-04-25T02:37:25.802Z,13.20
2019-04-25T02:42:34.222Z,13.00
2019-04-25T02:47:40.083Z,12.90
2019-04-25T02:52:46.815Z,12.70
2019-04-25T02:57:51.769Z,12.60
2019-04-25T03:02:59.087Z,12.50
2019-04-25T03:08:08.264Z,12.40
2019-04-25T03:13:14.561Z,12.50
2019-04-25T03:18:20.386Z,12.40
2019-04-25T03:23:34.960Z,12.50
2019-04-25T03:28:39.879Z,12.50
2019-04-25T03:33:46.169Z,12.40
2019-04-25T03:38:51.906Z,12.40
2019-04-25T03:43:56.846Z,12.40
2019-04-25T03:49:03.646Z,12.40
2019-04-25T03:54:09.594Z,12.50
2019-04-25T03:59:16.110Z,12.40
2019-04-25T04:04:23.727Z,12.50
2019-04-25T04:09:29.276Z,12.70
2019-04-25T04:14:34.631Z,12.80
2019-04-25T04:19:41.421Z,12.90
2019-04-25T04:24:48.775Z,13.00
2019-04-25T04:29:54.353Z,13.00
2019-04-25T04:35:00.019Z,13.20
2019-04-25T04:40:07.931Z,13.20
2019-04-25T04:45:14.268Z,13.20
2019-04-25T04:50:20.164Z,13.30
2019-04-25T04:55:25.390Z,13.40
2019-04-25T05:00:30.994Z,13.50
2019-04-25T05:05:40.748Z,13.60
2019-04-25T05:10:45.997Z,13.80
2019-04-25T05:15:51.250Z,14.00
2019-04-25T05:20:56.502Z,14.10
2019-04-25T05:26:01.754Z,14.30
2019-04-25T05:31:11.113Z,14.40
2019-04-25T05:36:17.575Z,14.70
2019-04-25T05:41:25.317Z,14.80
2019-04-25T05:46:30.769Z,15.00
2019-04-25T05:51:36.158Z,15.20
2019-04-25T05:56:41.729Z,15.40
2019-04-25T06:01:46.899Z,15.50
2019-04-25T06:06:53.073Z,15.60
2019-04-25T06:12:18.483Z,15.80
2019-04-25T06:17:44.203Z,16.20
2019-04-25T06:23:00.246Z,16.40
2019-04-25T06:28:07.566Z,16.70
2019-04-25T06:33:13.395Z,16.90
2019-04-25T06:38:18.723Z,17.00
2019-04-25T06:43:24.543Z,17.30
2019-04-25T06:48:35.289Z,17.50
2019-04-25T06:53:40.844Z,17.80
2019-04-25T06:58:46.123Z,18.00
2019-04-25T07:03:51.803Z,18.20
2019-04-25T07:08:57.315Z,18.50
2019-04-25T07:14:04.170Z,18.80
2019-04-25T07:19:09.843Z,19.10
2019-04-25T07:24:17.414Z,19.50
2019-04-25T07:29:35.768Z,19.80
2019-04-25T07:34:41.763Z,20.00
2019-04-25T07:39:47.076Z,20.00
2019-04-25T07:44:54.927Z,20.50
2019-04-25T07:49:59.155Z,20.80
2019-04-25T07:55:05.679Z,21.20
2019-04-25T08:00:16.167Z,21.20
2019-04-25T08:05:21.844Z,21.40
2019-04-25T08:10:30.025Z,21.60
2019-04-25T08:15:37.046Z,21.90
2019-04-25T08:20:43.421Z,22.10
2019-04-25T08:25:48.884Z,22.30
2019-04-25T08:30:55.037Z,22.30
2019-04-25T08:36:08.676Z,22.50
2019-04-25T08:41:07.837Z,22.80
2019-04-25T08:46:13.954Z,23.10
2019-04-25T08:51:19.884Z,23.00
2019-04-25T08:56:26.804Z,22.90
2019-04-25T09:01:37.893Z,23.00
2019-04-25T09:06:44.253Z,23.20
2019-04-25T09:11:50.123Z,23.80
2019-04-25T09:16:55.973Z,23.90
2019-04-25T09:22:03.206Z,23.60
2019-04-25T09:27:08.885Z,24.10
2019-04-25T09:32:14.284Z,24.50
2019-04-25T09:37:20.004Z,24.60
2019-04-25T09:42:25.564Z,24.60
2019-04-25T09:47:31.204Z,24.40
2019-04-25T09:52:37.724Z,24.50
2019-04-25T09:57:50.604Z,24.90
2019-04-25T10:02:55.725Z,25.30
2019-04-25T10:08:01.155Z,25.80
2019-04-25T10:13:06.843Z,25.90
2019-04-25T10:18:14.231Z,25.50
2019-04-25T10:23:19.523Z,25.70
2019-04-25T10:28:26.195Z,25.20
2019-04-25T10:33:31.652Z,25.40
2019-04-25T10:38:37.353Z,25.20
2019-04-25T10:43:43.891Z,25.10
2019-04-25T10:48:49.684Z,25.00
2019-04-25T10:53:55.176Z,24.50
2019-04-25T10:59:00.803Z,24.90
2019-04-25T11:04:14.245Z,25.30
2019-04-25T11:09:24.158Z,25.50
2019-04-25T11:14:31.607Z,25.90
2019-04-25T11:19:38.004Z,25.90
2019-04-25T11:24:43.801Z,25.30
2019-04-25T11:29:49.605Z,25.40
2019-04-25T11:34:55.404Z,25.50
2019-04-25T11:40:05.164Z,26.00
2019-04-25T11:45:11.516Z,26.10
2019-04-25T11:50:16.726Z,26.50
2019-04-25T11:55:23.777Z,26.80
2019-04-25T12:00:30.964Z,26.80
2019-04-25T12:05:36.524Z,26.90
2019-04-25T12:10:42.888Z,26.40
2019-04-25T12:15:49.843Z,26.70
2019-04-25T12:20:57.899Z,27.20
2019-04-25T12:26:03.760Z,26.80
2019-04-25T12:31:08.932Z,25.80
2019-04-25T12:36:14.605Z,25.70
2019-04-25T12:41:20.364Z,25.90
2019-04-25T12:46:36.683Z,26.40
2019-04-25T12:51:42.318Z,26.20
2019-04-25T12:56:47.530Z,26.10
2019-04-25T13:01:54.530Z,26.00
2019-04-25T13:06:59.836Z,26.40
2019-04-25T13:12:06.407Z,26.80
2019-04-25T13:17:13.590Z,26.90
2019-04-25T13:22:19.214Z,27.00
2019-04-25T13:27:42.245Z,27.40
2019-04-25T13:33:06.457Z,27.50
2019-04-25T13:38:12.123Z,27.00
2019-04-25T13:43:17.605Z,26.60
2019-04-25T13:48:25.545Z,26.20
2019-04-25T13:53:30.164Z,26.90
2019-04-25T13:58:35.724Z,27.10
2019-04-25T14:03:41.164Z,27.40
2019-04-25T14:08:46.837Z,27.50
2019-04-25T14:13:52.523Z,27.40
2019-04-25T14:19:15.885Z,27.60
2019-04-25T14:24:22.949Z,28.00
2019-04-25T14:29:28.676Z,28.10
2019-04-25T14:34:34.127Z,27.90
2019-04-25T14:39:39.804Z,27.40
2019-04-25T14:44:45.047Z,26.70
2019-04-25T14:49:50.484Z,26.60
2019-04-25T14:55:15.564Z,26.80
2019-04-25T15:00:23.947Z,27.20
2019-04-25T15:05:29.445Z,27.10
2019-04-25T15:10:36.204Z,27.00
2019-04-25T15:15:41.844Z,27.10
2019-04-25T15:20:47.262Z,27.10
2019-04-25T15:25:52.746Z,27.10
2019-04-25T15:30:57.983Z,27.20
2019-04-25T15:36:11.099Z,27.20
2019-04-25T15:41:18.371Z,26.90
2019-04-25T15:46:26.070Z,27.00
2019-04-25T15:51:32.690Z,27.10
2019-04-25T15:56:38.621Z,27.30
2019-04-25T16:01:43.890Z,27.10
2019-04-25T16:06:49.139Z,27.20
2019-04-25T16:11:54.618Z,27.00
2019-04-25T16:17:00.196Z,26.40
2019-04-25T16:22:05.723Z,26.10
2019-04-25T16:27:11.755Z,25.90
2019-04-25T16:32:20.886Z,25.90
2019-04-25T16:37:26.083Z,25.90
2019-04-25T16:42:31.723Z,25.90
2019-04-25T16:47:37.919Z,25.90
2019-04-25T16:52:43.466Z,25.90
2019-04-25T16:57:49.138Z,25.70
2019-04-25T17:02:54.286Z,25.60
2019-04-25T17:07:59.813Z,25.60
2019-04-25T17:13:05.296Z,25.50
2019-04-25T17:18:12.166Z,25.10
2019-04-25T17:23:17.553Z,24.90
2019-04-25T17:28:23.087Z,24.60
2019-04-25T17:33:46.411Z,24.40
2019-04-25T17:38:53.529Z,24.30
2019-04-25T17:44:01.077Z,24.20
2019-04-25T17:49:06.396Z,24.00
2019-04-25T17:54:11.773Z,23.80
2019-04-25T17:59:17.019Z,23.60
2019-04-25T18:04:22.717Z,23.40
2019-04-25T18:09:28.298Z,23.00
2019-04-25T18:14:35.165Z,22.70
2019-04-25T18:19:42.602Z,22.20
2019-04-25T18:30:32.903Z,21.50
2019-04-25T18:35:41.686Z,21.40
2019-04-25T18:40:52.438Z,21.20
2019-04-25T18:45:59.677Z,20.90
2019-04-25T18:51:07.237Z,20.50
2019-04-25T18:56:29.398Z,20.10
2019-04-25T19:01:54.221Z,19.70
2019-04-25T19:07:00.081Z,19.30
2019-04-25T19:12:05.526Z,19.10
2019-04-25T19:17:11.819Z,19.00
2019-04-25T19:22:17.388Z,18.70
2019-04-25T19:27:24.029Z,18.40
2019-04-25T19:32:29.873Z,18.10
2019-04-25T19:37:38.343Z,17.90
2019-04-25T19:48:56.022Z,17.60
2019-04-25T19:54:15.103Z,17.30
2019-04-25T19:59:38.717Z,17.00
2019-04-25T20:04:59.398Z,16.70
2019-04-25T20:10:28.120Z,16.40
2019-04-25T20:15:33.584Z,16.10
2019-04-25T20:20:39.574Z,16.00
2019-04-25T20:25:45.381Z,15.90
2019-04-25T20:30:51.846Z,15.70
2019-04-25T20:42:10.102Z,15.20
2019-04-25T20:47:55.782Z,15.10
2019-04-25T20:53:24.542Z,15.00
2019-04-25T20:58:47.705Z,14.90
2019-04-25T21:04:28.621Z,14.90
2019-04-25T21:09:34.158Z,14.80
2019-04-25T21:20:19.867Z,14.60
2019-04-25T21:25:25.044Z,14.40
2019-04-25T21:30:30.410Z,14.30
2019-04-25T21:35:35.546Z,14.10
2019-04-25T21:40:42.893Z,13.90
2019-04-25T21:45:48.849Z,13.80
2019-04-25T21:50:55.033Z,13.70
2019-04-25T21:56:00.656Z,13.60
2019-04-25T22:01:09.515Z,13.50
2019-04-25T22:06:17.743Z,13.50
2019-04-25T22:11:22.251Z,13.30
2019-04-25T22:16:27.646Z,13.10
2019-04-25T22:21:38.097Z,13.00
2019-04-25T22:26:40.202Z,12.80
2019-04-25T22:31:53.433Z,12.70
2019-04-25T22:36:59.913Z,12.70
2019-04-25T22:42:05.829Z,12.60
2019-04-25T22:47:12.540Z,12.50
2019-04-25T22:52:18.075Z,12.40
2019-04-25T22:57:26.167Z,12.40
2019-04-25T23:02:33.191Z,12.40
2019-04-25T23:07:38.483Z,12.40
2019-04-25T23:12:44.206Z,12.30
2019-04-25T23:17:49.183Z,12.30
2019-04-25T23:22:54.853Z,12.20
2019-04-25T23:28:05.337Z,12.10
2019-04-25T23:33:11.107Z,12.00
2019-04-25T23:38:16.546Z,11.90
2019-04-25T23:43:21.900Z,11.80
2019-04-25T23:48:27.196Z,11.80
2019-04-25T23:53:32.525Z,11.70
2019-04-25T23:58:37.874Z,11.70
